Terminal Aerodrome Forecast
Issued by NWS Jackson, MS

Home | Current Version | Previous Version | Text Only | Print | Product List | Glossary On
Versions: 1 2 3 4 5 6 7 8 9 10 11 12 13 14 15 16
000
FTUS44 KMEG 181300 AAA
TAFTUP
TAF AMD
KTUP 181340Z 1814/1912 08003KT P6SM BKN050 BKN250
     FM181600 11004KT P6SM VCTS SCT040CB OVC250
     FM182100 06005KT P6SM VCTS BKN040CB BKN250
     FM190000 05002KT P6SM SCT035 BKN250
      TEMPO 1908/1912 3SM BR=

USA.gov is the U.S. government's official web portal to all federal, state and local government web resources and services.